createdAt,value
2022-10-01T00:01:17.448Z,82.69
2022-10-01T00:03:45.611Z,80.60
2022-10-01T00:06:18.398Z,81.01
2022-10-01T00:08:49.149Z,79.85
2022-10-01T00:11:19.918Z,82.57
2022-10-01T00:13:47.455Z,83.09
2022-10-01T00:16:18.361Z,85.07
2022-10-01T00:18:48.140Z,88.31
2022-10-01T00:21:23.676Z,87.30
2022-10-01T00:24:02.231Z,85.45
2022-10-01T00:26:32.022Z,88.83
2022-10-01T00:29:05.516Z,88.62
2022-10-01T00:31:33.500Z,87.76
2022-10-01T00:34:03.407Z,87.10
2022-10-01T00:36:31.795Z,85.84
2022-10-01T00:39:02.200Z,85.25
2022-10-01T00:41:32.279Z,87.24
2022-10-01T00:44:20.705Z,87.62
2022-10-01T00:46:47.673Z,86.38
2022-10-01T00:49:24.413Z,83.83
2022-10-01T00:51:55.446Z,83.84
2022-10-01T00:54:43.375Z,83.64
2022-10-01T00:57:12.553Z,83.96
2022-10-01T00:59:39.554Z,83.46
2022-10-01T01:02:06.623Z,83.26
2022-10-01T01:04:33.614Z,82.57
2022-10-01T01:07:04.030Z,82.15
2022-10-01T01:09:35.309Z,81.22
2022-10-01T01:12:20.188Z,80.96
2022-10-01T01:15:10.565Z,80.63
2022-10-01T01:17:55.674Z,79.40
2022-10-01T01:20:22.475Z,78.78
2022-10-01T01:23:03.498Z,77.74
2022-10-01T01:26:03.588Z,76.80
2022-10-01T01:28:39.575Z,76.74
2022-10-01T01:31:15.596Z,76.14
2022-10-01T01:33:46.238Z,79.82
2022-10-01T01:36:18.941Z,79.72
2022-10-01T01:38:51.793Z,78.65
2022-10-01T01:41:21.031Z,81.30
2022-10-01T01:43:51.987Z,80.00
2022-10-01T01:46:20.490Z,78.17
2022-10-01T01:48:53.395Z,77.49
2022-10-01T01:51:33.014Z,76.70
2022-10-01T01:54:00.511Z,77.22
2022-10-01T01:56:27.993Z,72.36
2022-10-01T01:58:55.067Z,73.92
2022-10-01T02:01:42.452Z,78.24
2022-10-01T02:04:35.695Z,80.26
2022-10-01T02:07:05.401Z,81.96
2022-10-01T02:09:47.216Z,80.07
2022-10-01T02:12:38.447Z,79.44
2022-10-01T02:15:13.874Z,80.22
2022-10-01T02:17:50.731Z,79.18
2022-10-01T02:20:28.306Z,79.15
2022-10-01T02:23:01.007Z,79.83
2022-10-01T02:25:34.751Z,83.04
2022-10-01T02:28:07.818Z,84.47
2022-10-01T02:30:36.234Z,83.11
2022-10-01T02:33:05.731Z,81.78
2022-10-01T02:35:35.956Z,80.36
2022-10-01T02:38:06.497Z,79.63
2022-10-01T02:40:37.238Z,79.80
2022-10-01T02:43:09.130Z,79.57
2022-10-01T02:45:41.184Z,82.67
2022-10-01T02:48:11.471Z,84.24
2022-10-01T02:50:52.142Z,85.23
2022-10-01T02:53:23.606Z,83.87
2022-10-01T02:55:52.714Z,84.70
2022-10-01T02:58:20.469Z,85.68
2022-10-01T03:00:47.387Z,84.70
2022-10-01T03:03:14.287Z,86.00
2022-10-01T03:05:41.215Z,86.97
2022-10-01T03:08:08.233Z,86.24
2022-10-01T03:10:35.137Z,85.23
2022-10-01T03:13:02.245Z,85.86
2022-10-01T03:15:29.769Z,85.51
2022-10-01T03:17:56.690Z,85.01
2022-10-01T03:20:23.879Z,82.71
2022-10-01T03:22:50.821Z,82.23
2022-10-01T03:25:18.080Z,81.62
2022-10-01T03:27:46.264Z,81.50
2022-10-01T03:30:13.297Z,82.98
2022-10-01T03:32:40.162Z,83.22
2022-10-01T03:35:07.698Z,82.52
2022-10-01T03:37:34.632Z,82.35
2022-10-01T03:40:01.841Z,84.75
2022-10-01T03:42:28.696Z,86.68
2022-10-01T03:44:56.088Z,87.90
2022-10-01T03:47:24.463Z,86.15
2022-10-01T03:49:51.403Z,84.94
2022-10-01T03:52:19.225Z,85.38
2022-10-01T03:54:46.117Z,86.12
2022-10-01T03:57:12.994Z,85.08
2022-10-01T03:59:39.928Z,85.18
2022-10-01T04:02:08.399Z,84.50
2022-10-01T04:04:35.377Z,85.68
2022-10-01T04:07:02.248Z,84.04
2022-10-01T04:09:29.100Z,83.00
2022-10-01T04:11:56.111Z,82.67
2022-10-01T04:14:23.092Z,83.22
2022-10-01T04:16:52.600Z,84.27
2022-10-01T04:19:20.463Z,82.57
2022-10-01T04:21:47.838Z,81.56
2022-10-01T04:24:14.722Z,82.03
2022-10-01T04:26:41.565Z,79.93
2022-10-01T04:29:08.735Z,78.29
2022-10-01T04:31:36.191Z,73.96
2022-10-01T04:34:04.020Z,69.71
2022-10-01T04:36:31.201Z,67.96
2022-10-01T04:39:02.194Z,63.36
2022-10-01T04:41:31.899Z,60.55
2022-10-01T04:44:00.044Z,53.49
2022-10-01T04:46:30.118Z,53.57
2022-10-01T04:48:57.392Z,50.84
2022-10-01T04:51:24.703Z,46.34
2022-10-01T04:53:51.541Z,44.47
2022-10-01T04:56:18.391Z,43.58
2022-10-01T04:58:45.233Z,46.07
2022-10-01T05:01:12.627Z,45.69
2022-10-01T05:03:39.958Z,46.14
2022-10-01T05:06:06.892Z,41.94
2022-10-01T05:08:33.805Z,39.87
2022-10-01T05:11:00.729Z,38.71
2022-10-01T05:13:31.964Z,37.69
2022-10-01T05:15:59.430Z,36.90
2022-10-01T05:18:26.623Z,39.71
2022-10-01T05:20:53.499Z,39.96
2022-10-01T05:23:20.408Z,39.67
2022-10-01T05:25:47.457Z,40.97
2022-10-01T05:28:18.403Z,41.13
2022-10-01T05:30:49.271Z,42.06
2022-10-01T05:33:16.210Z,41.71
2022-10-01T05:35:43.119Z,40.04
2022-10-01T05:38:10.157Z,41.06
2022-10-01T05:40:37.226Z,38.59
2022-10-01T05:43:04.564Z,36.36
2022-10-01T05:45:32.276Z,35.82
2022-10-01T05:48:01.255Z,35.89
2022-10-01T05:50:31.689Z,36.57
2022-10-01T05:52:59.522Z,34.88
2022-10-01T05:55:27.057Z,32.45
2022-10-01T05:58:04.896Z,33.56
2022-10-01T06:00:33.754Z,29.05
2022-10-01T06:03:02.469Z,28.83
2022-10-01T06:05:31.496Z,29.34
2022-10-01T06:07:58.444Z,27.60
2022-10-01T06:10:25.744Z,26.69
2022-10-01T06:12:53.284Z,26.55
2022-10-01T06:15:20.202Z,26.51
2022-10-01T06:17:47.227Z,28.36
2022-10-01T06:20:19.237Z,24.92
2022-10-01T06:22:54.319Z,25.68
2022-10-01T06:25:21.692Z,25.56
2022-10-01T06:27:55.706Z,27.38
2022-10-01T06:30:22.823Z,28.41
2022-10-01T06:32:49.682Z,26.44
2022-10-01T06:35:16.618Z,27.79
2022-10-01T06:37:43.484Z,26.49
2022-10-01T06:40:10.572Z,26.49
2022-10-01T06:42:37.419Z,24.12
2022-10-01T06:45:04.840Z,23.72
2022-10-01T06:47:31.771Z,22.78
2022-10-01T06:49:59.470Z,21.86
2022-10-01T06:52:44.715Z,23.19
2022-10-01T06:55:16.349Z,23.07
2022-10-01T06:57:44.041Z,22.68
2022-10-01T07:00:11.966Z,21.53
2022-10-01T07:02:39.781Z,20.89
2022-10-01T07:05:08.638Z,21.87
2022-10-01T07:07:37.550Z,22.27
2022-10-01T07:10:09.293Z,20.92
2022-10-01T07:12:37.806Z,19.32
2022-10-01T07:15:06.502Z,21.23
2022-10-01T07:17:33.852Z,22.42
2022-10-01T07:20:01.826Z,22.66
2022-10-01T07:22:28.747Z,23.46
2022-10-01T07:24:55.670Z,22.82
2022-10-01T07:27:22.580Z,22.31
2022-10-01T07:29:49.456Z,20.45
2022-10-01T07:32:16.720Z,21.22
2022-10-01T07:34:43.566Z,20.53
2022-10-01T07:37:10.970Z,21.30
2022-10-01T07:39:38.077Z,20.53
2022-10-01T07:42:04.968Z,19.97
2022-10-01T07:44:31.830Z,21.38
2022-10-01T07:46:59.284Z,22.78
2022-10-01T07:49:26.291Z,24.22
2022-10-01T07:51:54.860Z,25.02
2022-10-01T07:54:22.650Z,26.38
2022-10-01T07:56:52.956Z,25.92
2022-10-01T07:59:20.000Z,26.24
2022-10-01T08:01:53.474Z,26.87
2022-10-01T08:04:40.288Z,27.40
2022-10-01T08:07:08.388Z,27.59
2022-10-01T08:09:35.993Z,26.46
2022-10-01T08:12:03.165Z,27.05
2022-10-01T08:14:30.607Z,28.67
2022-10-01T08:16:57.875Z,28.29
2022-10-01T08:19:25.539Z,26.30
2022-10-01T08:21:52.935Z,27.16
2022-10-01T08:24:20.244Z,27.79
2022-10-01T08:26:53.435Z,27.50
2022-10-01T08:29:20.558Z,27.32
2022-10-01T08:31:48.352Z,27.69
2022-10-01T08:34:15.609Z,27.46
2022-10-01T08:36:42.545Z,29.28
2022-10-01T08:39:09.438Z,28.37
2022-10-01T08:42:00.524Z,28.97
2022-10-01T08:44:41.305Z,27.75
2022-10-01T08:47:17.335Z,27.70
2022-10-01T08:49:53.750Z,26.72
2022-10-01T08:52:25.114Z,26.61
2022-10-01T08:55:00.575Z,28.08
2022-10-01T08:57:38.562Z,28.24
2022-10-01T09:00:12.383Z,28.20
2022-10-01T09:02:41.674Z,29.69
2022-10-01T09:05:29.779Z,30.41
2022-10-01T09:08:24.661Z,29.49
2022-10-01T09:11:01.738Z,30.24
2022-10-01T09:13:34.641Z,29.22
2022-10-01T09:16:29.560Z,28.03
2022-10-01T09:19:02.348Z,28.29
2022-10-01T09:21:47.526Z,29.00
2022-10-01T09:24:38.480Z,30.18
2022-10-01T09:27:13.895Z,29.44
2022-10-01T09:29:46.368Z,29.40
2022-10-01T09:32:18.344Z,30.24
2022-10-01T09:34:46.009Z,30.59
2022-10-01T09:37:15.797Z,30.52
2022-10-01T09:39:54.812Z,30.33
2022-10-01T09:42:26.985Z,30.80
2022-10-01T09:44:54.766Z,31.57
2022-10-01T09:47:25.769Z,30.43
2022-10-01T09:49:53.162Z,31.14
2022-10-01T09:52:38.459Z,31.02
2022-10-01T09:55:42.363Z,30.12
2022-10-01T09:58:18.397Z,30.69
2022-10-01T10:00:45.541Z,30.02
2022-10-01T10:03:23.797Z,28.99
2022-10-01T10:05:51.414Z,28.07
2022-10-01T10:08:21.359Z,30.07
2022-10-01T10:10:58.456Z,29.31
2022-10-01T10:13:35.406Z,28.81
2022-10-01T10:16:26.595Z,26.31
2022-10-01T10:19:02.322Z,26.09
2022-10-01T10:21:35.059Z,29.56
2022-10-01T10:24:05.215Z,28.64
2022-10-01T10:26:33.971Z,28.38
2022-10-01T10:29:03.500Z,30.26
2022-10-01T10:31:55.581Z,27.70
2022-10-01T10:34:38.379Z,28.47
2022-10-01T10:37:15.285Z,29.53
2022-10-01T10:39:46.831Z,30.06
2022-10-01T10:42:18.985Z,30.19
2022-10-01T10:44:49.401Z,29.34
2022-10-01T10:47:19.335Z,29.70
2022-10-01T10:49:49.244Z,31.81
2022-10-01T10:52:20.945Z,29.45
2022-10-01T10:54:50.781Z,30.29
2022-10-01T10:57:28.153Z,30.29
2022-10-01T11:00:01.112Z,30.21
2022-10-01T11:02:30.604Z,29.77
2022-10-01T11:05:15.340Z,29.89
2022-10-01T11:07:45.450Z,31.65
2022-10-01T11:10:25.591Z,32.51
2022-10-01T11:13:18.683Z,34.12
2022-10-01T11:16:42.282Z,35.28
2022-10-01T11:19:21.089Z,36.57
2022-10-01T11:21:57.982Z,34.52
2022-10-01T11:24:47.076Z,34.05
2022-10-01T11:27:36.337Z,32.65
2022-10-01T11:30:15.391Z,31.97
2022-10-01T11:33:33.047Z,31.73
2022-10-01T11:36:17.933Z,35.55
2022-10-01T11:39:05.562Z,36.06
2022-10-01T11:41:41.568Z,34.83
2022-10-01T11:44:29.837Z,34.98
2022-10-01T11:47:03.709Z,34.85
2022-10-01T11:49:54.822Z,33.78
2022-10-01T11:52:42.117Z,33.88
2022-10-01T11:55:55.234Z,34.49
2022-10-01T11:58:57.541Z,33.92
2022-10-01T12:01:24.456Z,34.87
2022-10-01T12:03:54.626Z,36.54
2022-10-01T12:06:33.598Z,36.15
2022-10-01T12:09:17.656Z,38.90
2022-10-01T12:12:11.614Z,39.73
2022-10-01T12:14:45.214Z,40.80
2022-10-01T12:17:27.347Z,40.70
2022-10-01T12:19:58.695Z,40.46
2022-10-01T12:22:35.827Z,40.40
2022-10-01T12:25:02.882Z,37.74
2022-10-01T12:27:38.630Z,37.33
2022-10-01T12:30:12.919Z,36.38
2022-10-01T12:32:39.650Z,35.57
2022-10-01T12:35:12.592Z,35.93
2022-10-01T12:38:01.114Z,37.59
2022-10-01T12:40:31.644Z,38.56
2022-10-01T12:43:20.827Z,38.01
2022-10-01T12:46:05.157Z,38.60
2022-10-01T12:49:00.624Z,39.62
2022-10-01T12:51:38.162Z,40.68
2022-10-01T12:54:24.483Z,41.79
2022-10-01T12:57:09.752Z,45.01
2022-10-01T12:59:40.950Z,47.14
2022-10-01T13:02:25.584Z,46.64
2022-10-01T13:05:10.575Z,45.67
2022-10-01T13:07:37.330Z,42.29
2022-10-01T13:10:27.847Z,39.34
2022-10-01T13:12:56.649Z,40.15
2022-10-01T13:15:28.357Z,39.57
2022-10-01T13:18:09.642Z,38.71
2022-10-01T13:21:05.821Z,40.59
2022-10-01T13:23:43.964Z,42.24
2022-10-01T13:26:32.333Z,42.73
2022-10-01T13:29:30.614Z,43.02
2022-10-01T13:32:00.141Z,42.69
2022-10-01T13:34:53.922Z,45.27
2022-10-01T13:37:29.880Z,46.82
2022-10-01T13:39:58.318Z,46.30
2022-10-01T13:42:37.046Z,47.63
2022-10-01T13:45:07.349Z,46.16
2022-10-01T13:47:41.297Z,47.49
2022-10-01T13:50:19.728Z,46.85
2022-10-01T13:52:47.149Z,44.34
2022-10-01T13:55:28.679Z,43.81
2022-10-01T13:58:06.539Z,44.25
2022-10-01T14:00:33.720Z,45.16
2022-10-01T14:03:29.502Z,44.62
2022-10-01T14:06:02.566Z,44.99
2022-10-01T14:08:38.233Z,45.21
2022-10-01T14:11:30.486Z,46.44
2022-10-01T14:14:26.600Z,47.11
2022-10-01T14:16:54.901Z,47.39
2022-10-01T14:19:25.247Z,47.36
2022-10-01T14:22:14.590Z,48.21
2022-10-01T14:24:47.362Z,48.63
2022-10-01T14:27:31.425Z,50.92
2022-10-01T14:30:14.733Z,51.61
2022-10-01T14:33:02.996Z,52.33
2022-10-01T14:35:53.692Z,52.27
2022-10-01T14:38:22.012Z,55.02
2022-10-01T14:40:50.718Z,55.85
2022-10-01T14:43:30.268Z,57.98
2022-10-01T14:45:59.747Z,57.13
2022-10-01T14:48:29.726Z,57.23
2022-10-01T14:51:03.223Z,56.58
2022-10-01T14:53:35.991Z,56.84
2022-10-01T14:56:13.576Z,56.05
2022-10-01T14:58:46.736Z,57.03
2022-10-01T15:01:21.163Z,56.46
2022-10-01T15:03:49.341Z,55.78
2022-10-01T15:06:20.770Z,56.07
2022-10-01T15:08:53.336Z,55.42
2022-10-01T15:11:23.657Z,54.61
2022-10-01T15:13:53.045Z,55.43
2022-10-01T15:16:27.497Z,55.23
2022-10-01T15:19:01.469Z,55.67
2022-10-01T15:21:47.761Z,57.24
2022-10-01T15:24:33.782Z,57.46
2022-10-01T15:27:01.792Z,58.35
2022-10-01T15:29:28.689Z,58.79
2022-10-01T15:31:57.799Z,58.76
2022-10-01T15:34:26.927Z,58.63
2022-10-01T15:36:54.797Z,59.46
2022-10-01T15:39:27.900Z,60.60
2022-10-01T15:41:56.811Z,59.87
2022-10-01T15:44:45.593Z,60.74
2022-10-01T15:47:47.880Z,60.62
2022-10-01T15:50:23.759Z,61.64
2022-10-01T15:53:19.571Z,61.75
2022-10-01T15:55:52.704Z,60.82
2022-10-01T15:58:27.050Z,63.08
2022-10-01T16:01:10.625Z,63.24
2022-10-01T16:03:49.360Z,62.76
2022-10-01T16:06:24.054Z,63.98
2022-10-01T16:09:00.294Z,65.09
2022-10-01T16:11:32.252Z,66.65
2022-10-01T16:14:29.240Z,67.95
2022-10-01T16:17:24.124Z,68.89
2022-10-01T16:19:53.476Z,69.83
2022-10-01T16:22:34.955Z,70.47
2022-10-01T16:25:26.071Z,69.46
2022-10-01T16:28:04.024Z,70.51
2022-10-01T16:30:32.637Z,69.28
2022-10-01T16:33:02.628Z,68.37
2022-10-01T16:35:32.715Z,69.42
2022-10-01T16:37:59.814Z,70.73
2022-10-01T16:40:30.102Z,71.27
2022-10-01T16:42:59.266Z,72.40
2022-10-01T16:45:29.620Z,73.10
2022-10-01T16:47:59.236Z,72.98
2022-10-01T16:50:26.566Z,70.90
2022-10-01T16:52:55.525Z,67.44
2022-10-01T16:55:27.765Z,66.45
2022-10-01T16:57:55.145Z,67.54
2022-10-01T17:00:24.556Z,67.22
2022-10-01T17:02:51.973Z,67.93
2022-10-01T17:05:26.120Z,68.67
2022-10-01T17:07:54.617Z,69.90
2022-10-01T17:10:23.848Z,71.08
2022-10-01T17:12:51.165Z,71.08
2022-10-01T17:15:26.551Z,68.94
2022-10-01T17:17:58.011Z,68.98
2022-10-01T17:20:28.745Z,71.44
2022-10-01T17:22:57.393Z,74.17
2022-10-01T17:25:34.445Z,72.77
2022-10-01T17:28:03.233Z,70.48
2022-10-01T17:30:31.197Z,69.23
2022-10-01T17:33:00.101Z,68.40
2022-10-01T17:35:28.964Z,68.45
2022-10-01T17:37:56.148Z,66.77
2022-10-01T17:40:23.331Z,66.13
2022-10-01T17:42:50.415Z,66.40
2022-10-01T17:45:17.475Z,66.03
2022-10-01T17:47:48.943Z,66.50
2022-10-01T17:50:16.933Z,66.87
2022-10-01T17:52:46.483Z,66.00
2022-10-01T17:55:13.614Z,66.00
2022-10-01T17:57:40.504Z,65.47
2022-10-01T18:00:08.195Z,65.20
2022-10-01T18:02:42.861Z,65.39
2022-10-01T18:05:12.618Z,64.86
2022-10-01T18:07:40.442Z,63.89
2022-10-01T18:10:10.984Z,64.15
2022-10-01T18:12:37.847Z,64.36
2022-10-01T18:15:05.298Z,64.26
2022-10-01T18:17:33.309Z,64.33
2022-10-01T18:20:00.400Z,64.12
2022-10-01T18:22:28.309Z,65.28
2022-10-01T18:24:55.494Z,64.73
2022-10-01T18:27:22.475Z,65.10
2022-10-01T18:29:49.506Z,65.72
2022-10-01T18:32:26.845Z,66.17
2022-10-01T18:34:59.265Z,66.66
2022-10-01T18:37:39.030Z,65.77
2022-10-01T18:40:17.940Z,66.24
2022-10-01T18:43:06.228Z,67.76
2022-10-01T18:45:41.936Z,64.90
2022-10-01T18:48:26.964Z,67.21
2022-10-01T18:51:09.039Z,69.29
2022-10-01T18:54:14.424Z,69.90
2022-10-01T18:56:54.368Z,70.36
2022-10-01T18:59:33.357Z,71.26
2022-10-01T19:02:26.485Z,70.80
2022-10-01T19:05:30.610Z,69.58
2022-10-01T19:08:17.918Z,71.37
2022-10-01T19:10:44.730Z,74.35
2022-10-01T19:13:13.895Z,73.01
2022-10-01T19:16:13.222Z,75.25
2022-10-01T19:18:56.846Z,76.52
2022-10-01T19:21:32.765Z,76.47
2022-10-01T19:24:17.435Z,76.84
2022-10-01T19:26:59.454Z,75.73
2022-10-01T19:29:41.629Z,74.15
2022-10-01T19:32:22.103Z,72.27
2022-10-01T19:34:56.910Z,72.72
2022-10-01T19:37:47.919Z,72.59
2022-10-01T19:40:51.856Z,73.87
2022-10-01T19:43:46.193Z,72.59
2022-10-01T19:46:24.012Z,72.04
2022-10-01T19:48:57.151Z,72.13
2022-10-01T19:51:30.559Z,71.46
2022-10-01T19:54:01.222Z,70.05
2022-10-01T19:56:31.214Z,68.09
2022-10-01T19:59:11.658Z,67.56
2022-10-01T20:01:44.389Z,66.50
2022-10-01T20:04:21.778Z,67.82
2022-10-01T20:06:48.666Z,68.64
2022-10-01T20:09:34.747Z,76.04
2022-10-01T20:12:18.497Z,82.75
2022-10-01T20:15:09.422Z,88.53
2022-10-01T20:17:36.295Z,89.20
2022-10-01T20:20:32.290Z,84.96
2022-10-01T20:23:26.615Z,82.39
2022-10-01T20:26:02.482Z,82.18
2022-10-01T20:28:44.743Z,84.57
2022-10-01T20:31:19.006Z,82.02
2022-10-01T20:34:07.694Z,82.27
2022-10-01T20:36:41.673Z,80.47
2022-10-01T20:39:11.892Z,81.75
2022-10-01T20:41:48.957Z,81.65
2022-10-01T20:44:22.088Z,81.34
2022-10-01T20:46:52.480Z,80.28
2022-10-01T20:49:27.328Z,79.35
2022-10-01T20:51:58.694Z,77.09
2022-10-01T20:54:32.612Z,76.30
2022-10-01T20:56:59.798Z,74.54
2022-10-01T20:59:36.703Z,74.41
2022-10-01T21:02:19.229Z,73.27
2022-10-01T21:05:00.762Z,74.26
2022-10-01T21:07:42.388Z,75.73
2022-10-01T21:10:43.417Z,75.99
2022-10-01T21:13:17.448Z,74.55
2022-10-01T21:15:50.041Z,73.64
2022-10-01T21:19:10.644Z,73.51
2022-10-01T21:21:53.339Z,73.03
2022-10-01T21:24:39.348Z,74.77
2022-10-01T21:27:06.213Z,75.61
2022-10-01T21:29:57.264Z,74.96
2022-10-01T21:32:36.818Z,75.22
2022-10-01T21:35:31.107Z,74.81
2022-10-01T21:38:16.478Z,74.45
2022-10-01T21:40:46.390Z,74.80
2022-10-01T21:43:46.970Z,72.90
2022-10-01T21:46:38.684Z,72.98
2022-10-01T21:49:17.603Z,74.66
2022-10-01T21:51:45.399Z,74.18
2022-10-01T21:54:44.792Z,74.98
2022-10-01T21:57:30.126Z,74.32
2022-10-01T22:00:23.347Z,75.38
2022-10-01T22:03:15.123Z,72.52
2022-10-01T22:06:00.300Z,72.00
2022-10-01T22:08:50.304Z,71.21
2022-10-01T22:11:23.466Z,70.22
2022-10-01T22:13:58.728Z,68.82
2022-10-01T22:16:31.918Z,68.44
2022-10-01T22:19:07.083Z,68.77
2022-10-01T22:21:50.491Z,72.75
2022-10-01T22:24:43.686Z,74.47
2022-10-01T22:27:19.143Z,75.01
2022-10-01T22:29:55.648Z,74.91
2022-10-01T22:32:24.797Z,73.75
2022-10-01T22:35:12.530Z,73.73
2022-10-01T22:37:53.958Z,73.09
2022-10-01T22:40:28.475Z,75.04
2022-10-01T22:43:04.617Z,75.77
2022-10-01T22:46:00.610Z,75.32
2022-10-01T22:49:03.865Z,75.66
2022-10-01T22:51:49.909Z,74.85
2022-10-01T22:54:58.940Z,75.26
2022-10-01T22:57:57.568Z,76.28
2022-10-01T23:00:24.608Z,74.02
2022-10-01T23:03:18.461Z,71.77
2022-10-01T23:06:06.387Z,71.25
2022-10-01T23:08:45.491Z,70.33
2022-10-01T23:11:18.405Z,69.76
2022-10-01T23:14:23.871Z,70.88
2022-10-01T23:17:22.894Z,69.51
2022-10-01T23:20:25.045Z,68.02
2022-10-01T23:22:54.506Z,68.78
2022-10-01T23:25:36.723Z,70.95
2022-10-01T23:28:21.268Z,70.05
2022-10-01T23:31:06.489Z,70.20
2022-10-01T23:33:58.165Z,74.79
2022-10-01T23:36:37.163Z,80.05
2022-10-01T23:39:07.124Z,87.05
2022-10-01T23:41:47.810Z,74.16
2022-10-01T23:44:23.790Z,71.78
2022-10-01T23:46:53.316Z,63.15
2022-10-01T23:49:26.775Z,60.76
2022-10-01T23:52:13.001Z,59.93
2022-10-01T23:54:56.638Z,63.42
2022-10-01T23:57:31.986Z,63.77
